Airfield :
LOGIN :

Register | Disclaimer

   EN    FR    IT 

 










Legend :    VFR   Marginal VFR   IFR   Intensive IFR   Very Intensive IFR
Visi :
Ceiling :
>= 8 km
>= 3000ft
5 to 8 km
1000 to 3000 ft
1500m to 5 km
500 to 1000 ft
800 to 1500m
200 to 500 ft
< 800m
< 200 ft
Symbols :   Thunderstorms  Fog  Heavy snow  Heavy precipitations  Wind > 20 kt
SIGMETs :     Misc.  Thunderstorms  Icing  Turbulence  Mountain Waves  Volcanic Ashes






- Airport Elevation : 416 ft
- IATA code : OVD


LEAS - Asturias

CURRENT METAR :
  • 170000Z AUTO 23012KT 9999 FEW038 SCT060 BKN070 10/05 Q1013

EXPIRED METARs :
  • 162330Z AUTO 23011KT 9999 BKN046 BKN050 10/05 Q1013
  • 162300Z 24012KT 9999 SCT035 BKN040 BKN054 10/05 Q1013 NOSIG
  • 162230Z 23011KT 9999 BKN032 BKN038 09/05 Q1013 NOSIG
  • 162200Z 23012KT 9999 BKN028 BKN032 09/05 Q1013 NOSIG
  • 162130Z 23010KT 200V260 9999 BKN030 09/04 Q1014 NOSIG

TAF TAF LEAS
Valid from the 16 at 21:00 until the 17 at 21:00 UTC


162000Z 1621/1721 20009KT 9999 SCT030 BKN040 TX11/1714Z TN07/1622Z
BECMG 1706/1708 27010KT
TEMPO 1708/1718 27015G25KT
PROB30
TEMPO 1710/1716 27018G35KT
PROB30
TEMPO 1621/1704 3000 RA BKN014
TEMPO 1704/1715 3000 RA SHRA BKN010 BKN025TCU
PROB40
TEMPO 1708/1718 1500 +RA
PROB30
TEMPO 1711/1721 TSRA SCT025CB



MET'MAP, your aeronautical weather chart ! - Copyright ORBIFLY December 2007 - Disclaimer

ORBIFLY MET'MAP TEAM :

Programming & Development : Alexandra Zaïnal
Concept & Development : Baudouin d'Aumeries
Co-Development & Prog : Marc-Olivier Méhu
Technical & hardware support : Manuel Goepfert

Contact : metmap@orbifly.com




SOURCES & CREDITS :

   NOAA